Buoy 46930

sailwx.info

Track history (hours):
 
Tides and Currents Weather Stations Pressure Air Temp Water Temp Dewpoint Dewpoint Depression Visibility Wind Speed Wind Dir Waves Ship Positions

Drifting buoy 46930

Last reported at 2014-Oct-21 05:00 UTC. Time now 2014-Oct-21 07:05 UTC.
Position N 18°54' W 117°58'.

Water temperature 25.9 ° C

Date/timePositionNaut miles runAvg speedWind from/ knotsBaromVisibWave heightAir tempDewpointWater temp
2014-Oct-21 05:00N 18°54' W 117°58'2 0.5 25.9
2014-Oct-21 00:00N 18°56' W 117°60'1 0.2 26.1
2014-Oct-20 21:00N 18°57' W 117°60'0 0.1 26.1
2014-Oct-20 20:00N 18°57' W 117°60'2 1.2 26.1
2014-Oct-20 18:00N 18°59' W 118°01'0 0.0 26.0
2014-Oct-20 17:00N 18°59' W 118°01'0 0.5 25.9
2014-Oct-20 16:00N 18°59' W 118°01'0 0.0 25.9
2014-Oct-20 15:00N 18°59' W 118°01'1 0.3 25.9
2014-Oct-20 13:00N 18°59' W 118°01'0 0.1 25.9
2014-Oct-20 12:00N 18°59' W 118°01'0 0.2 25.9
2014-Oct-20 11:00N 18°60' W 118°01'1 0.3 25.9
2014-Oct-20 09:00N 19°00' W 118°01'2 0.4 25.9
2014-Oct-20 05:00N 19°02' W 118°02'0 0.2 26.0
2014-Oct-20 04:00N 19°02' W 118°01'1 0.4 26.0
2014-Oct-20 01:00N 19°03' W 118°01'1 0.5 26.1
2014-Oct-20 00:00N 19°03' W 118°01'1 0.5 26.1
2014-Oct-19 23:00N 19°04' W 118°00'1 0.8 26.1
2014-Oct-19 22:00N 19°04' W 118°01'0 0.0 26.1
2014-Oct-19 20:00N 19°04' W 118°01'1 0.3 26.1
2014-Oct-19 18:00N 19°05' W 118°01'1 0.2 26.0
2014-Oct-19 12:00N 19°06' W 118°01'0 0.3 26.0
2014-Oct-19 11:00N 19°06' W 118°00'0 0.2 26.0
2014-Oct-19 10:00N 19°06' W 118°00'2 0.3 26.0
2014-Oct-19 05:00N 19°08' W 118°01'1 0.3 26.0
2014-Oct-19 03:00N 19°08' W 118°00'0 0.0 26.1
2014-Oct-19 02:00N 19°08' W 118°00'0 0.1 26.1
2014-Oct-18 22:00N 19°08' W 118°00'1 0.2 26.2
2014-Oct-18 18:00N 19°09' W 117°60'1 0.7 26.0
2014-Oct-18 17:00N 19°09' W 117°60'0 0.2 26.0
2014-Oct-18 15:00N 19°10' W 117°59'0 0.2 26.0
2014-Oct-18 13:00N 19°10' W 117°59'1 0.3 26.0
2014-Oct-18 11:00N 19°10' W 117°59'1 0.6 26.0
2014-Oct-18 10:00N 19°11' W 117°58'1 0.2 26.0
2014-Oct-18 06:00N 19°11' W 117°58'1 0.6 26.1
2014-Oct-18 05:00N 19°11' W 117°59'1 0.2 26.1
2014-Oct-18 00:00N 19°12' W 117°59'0 0.1 26.2
2014-Oct-17 22:00N 19°12' W 117°58'1 0.4 26.2
2014-Oct-17 20:00N 19°12' W 117°59'1 0.4 26.2
2014-Oct-17 18:00N 19°12' W 117°58'1 1.2 26.1
2014-Oct-17 17:00N 19°13' W 117°59'0 0.4 26.1
2014-Oct-17 16:00N 19°13' W 117°59'0 0.0 26.0
2014-Oct-17 15:00N 19°13' W 117°59'0 0.2 26.0
2014-Oct-17 14:00N 19°13' W 117°59'0 0.2 26.0
2014-Oct-17 12:00N 19°13' W 117°58'0 0.2 26.0
2014-Oct-17 11:00N 19°13' W 117°58'0 0.1 26.0
2014-Oct-17 05:00N 19°13' W 117°59'0 0.5 26.1
2014-Oct-17 04:00N 19°14' W 117°59'1 0.8 26.1
2014-Oct-17 03:00N 19°14' W 117°60'0 0.0 26.1
2014-Oct-17 02:00N 19°14' W 117°60'1 0.4 26.2
2014-Oct-17 00:00N 19°14' W 118°00'0 0.1 26.2
2014-Oct-16 17:00N 19°15' W 118°01'0 0.1 26.1
2014-Oct-16 11:00N 19°15' W 118°01'1 0.1 26.1
2014-Oct-16 05:00N 19°15' W 118°01'1 0.3 26.1
2014-Oct-16 00:00N 19°16' W 118°02'1 0.5 26.2
2014-Oct-15 21:00N 19°14' W 118°03'0 0.0 26.2
2014-Oct-15 19:00N 19°14' W 118°03'0 0.2 26.2
2014-Oct-15 17:00N 19°14' W 118°03'0 0.0 26.1
2014-Oct-15 16:00N 19°14' W 118°03'1 0.4 26.1
2014-Oct-15 13:00N 19°14' W 118°04'2 0.2 26.1
2014-Oct-15 06:00N 19°12' W 118°05'0 0.1 26.1
2014-Oct-15 04:00N 19°12' W 118°05'0 0.1 26.1
2014-Oct-15 03:00N 19°12' W 118°05'1 0.9 26.1
2014-Oct-15 02:00N 19°12' W 118°06'1 1.0 26.1
2014-Oct-15 01:00N 19°12' W 118°07'0 0.1 26.1
2014-Oct-14 23:00N 19°12' W 118°06'6 0.7 26.2
2014-Oct-14 14:00N 19°07' W 118°10'0 0.2 26.1
2014-Oct-14 13:00N 19°07' W 118°10'1 0.6 26.1
2014-Oct-14 12:00N 19°07' W 118°11'1 1.3 26.1
2014-Oct-14 11:00N 19°05' W 118°11'0 0.1 26.1
2014-Oct-14 10:00N 19°05' W 118°11'4 1.0 26.1
2014-Oct-14 06:00N 19°01' W 118°12'1 1.1 26.1
2014-Oct-14 05:00N 19°01' W 118°11'1 1.0 26.1
2014-Oct-14 04:00N 18°60' W 118°11'0 0.4 26.1
2014-Oct-14 03:00N 18°60' W 118°11'1 0.7 26.1
2014-Oct-14 01:00N 18°59' W 118°10'0 0.3 26.1
2014-Oct-14 00:00N 18°59' W 118°10'1 0.7 26.1
2014-Oct-13 23:00N 18°58' W 118°09'1 0.2 26.2
2014-Oct-13 18:00N 18°57' W 118°10'1 0.6 26.1
2014-Oct-13 17:00N 18°57' W 118°10'3 2.7 26.1
2014-Oct-13 16:00N 18°55' W 118°09'1 0.3 26.1
2014-Oct-13 14:00N 18°55' W 118°10'1 0.6 26.1
2014-Oct-13 12:00N 18°53' W 118°09'0 0.1 26.1
2014-Oct-13 10:00N 18°54' W 118°09'3 1.5 26.1
2014-Oct-13 08:00N 18°51' W 118°09'0 0.0 26.2
2014-Oct-13 07:00N 18°51' W 118°09'0 0.0 26.2
2014-Oct-13 06:00N 18°51' W 118°09'4 1.2 26.2
2014-Oct-13 03:00N 18°47' W 118°07'0 0.0 26.2
2014-Oct-13 02:00N 18°47' W 118°07'0 0.0 26.1
2014-Oct-13 01:00N 18°47' W 118°07'2 2.2 26.2
2014-Oct-13 00:00N 18°46' W 118°06'0 0.0 26.1
2014-Oct-12 22:00N 18°46' W 118°06'1 0.5 26.1
2014-Oct-12 20:00N 18°45' W 118°05'2 1.7 26.0
2014-Oct-12 19:00N 18°45' W 118°03'1 0.7 25.9
2014-Oct-12 18:00N 18°44' W 118°03'5 0.8 25.9
2014-Oct-12 12:00N 18°43' W 117°57'5 0.7 25.9
2014-Oct-12 05:00N 18°44' W 117°53'2 1.9 26.2
2014-Oct-12 04:00N 18°46' W 117°52'0 0.0 26.3
2014-Oct-12 03:00N 18°46' W 117°52'0 0.1 26.3
2014-Oct-12 00:00N 18°46' W 117°52'0 0.4 26.4
2014-Oct-11 23:00N 18°46' W 117°52'0 0.3 26.4
2014-Oct-11 22:00N 18°46' W 117°51'0 0.4 26.4
2014-Oct-11 21:00N 18°46' W 117°51'0 0.1 26.4
2014-Oct-11 20:00N 18°46' W 117°51'1 0.2 26.4
2014-Oct-11 17:00N 18°46' W 117°51'2 2.1 26.3
2014-Oct-11 16:00N 18°44' W 117°49'1 0.2 26.2
2014-Oct-11 13:00N 18°44' W 117°48'1 1.4 26.1
2014-Oct-11 12:00N 18°44' W 117°47'0 0.0 26.2
2014-Oct-11 11:00N 18°44' W 117°47'2 1.0 26.1
2014-Oct-11 09:00N 18°44' W 117°45'3 0.9 25.8
2014-Oct-11 06:00N 18°44' W 117°42'   25.8
Track history (hours):
 
Tides and Currents Weather Stations Pressure Air Temp Water Temp Dewpoint Dewpoint Depression Visibility Wind Speed Wind Dir Waves Ship Positions

Drifting buoy 46930

Last reported at 2014-Oct-21 05:00 UTC. Time now 2014-Oct-21 07:05 UTC.
Position N 18°54' W 117°58'.

Water temperature 25.9 ° C

Date/timePositionNaut miles runAvg speedWind from/ knotsBaromVisibWave heightAir tempDewpointWater temp
2014-Oct-21 05:00N 18°54' W 117°58'2 0.5 25.9
2014-Oct-21 00:00N 18°56' W 117°60'1 0.2 26.1
2014-Oct-20 21:00N 18°57' W 117°60'0 0.1 26.1
2014-Oct-20 20:00N 18°57' W 117°60'2 1.2 26.1
2014-Oct-20 18:00N 18°59' W 118°01'0 0.0 26.0
2014-Oct-20 17:00N 18°59' W 118°01'0 0.5 25.9
2014-Oct-20 16:00N 18°59' W 118°01'0 0.0 25.9
2014-Oct-20 15:00N 18°59' W 118°01'1 0.3 25.9
2014-Oct-20 13:00N 18°59' W 118°01'0 0.1 25.9
2014-Oct-20 12:00N 18°59' W 118°01'0 0.2 25.9
2014-Oct-20 11:00N 18°60' W 118°01'1 0.3 25.9
2014-Oct-20 09:00N 19°00' W 118°01'2 0.4 25.9
2014-Oct-20 05:00N 19°02' W 118°02'0 0.2 26.0
2014-Oct-20 04:00N 19°02' W 118°01'1 0.4 26.0
2014-Oct-20 01:00N 19°03' W 118°01'1 0.5 26.1
2014-Oct-20 00:00N 19°03' W 118°01'1 0.5 26.1
2014-Oct-19 23:00N 19°04' W 118°00'1 0.8 26.1
2014-Oct-19 22:00N 19°04' W 118°01'0 0.0 26.1
2014-Oct-19 20:00N 19°04' W 118°01'1 0.3 26.1
2014-Oct-19 18:00N 19°05' W 118°01'1 0.2 26.0
2014-Oct-19 12:00N 19°06' W 118°01'0 0.3 26.0
2014-Oct-19 11:00N 19°06' W 118°00'0 0.2 26.0
2014-Oct-19 10:00N 19°06' W 118°00'2 0.3 26.0
2014-Oct-19 05:00N 19°08' W 118°01'1 0.3 26.0
2014-Oct-19 03:00N 19°08' W 118°00'0 0.0 26.1
2014-Oct-19 02:00N 19°08' W 118°00'0 0.1 26.1
2014-Oct-18 22:00N 19°08' W 118°00'1 0.2 26.2
2014-Oct-18 18:00N 19°09' W 117°60'1 0.7 26.0
2014-Oct-18 17:00N 19°09' W 117°60'0 0.2 26.0
2014-Oct-18 15:00N 19°10' W 117°59'0 0.2 26.0
2014-Oct-18 13:00N 19°10' W 117°59'1 0.3 26.0
2014-Oct-18 11:00N 19°10' W 117°59'1 0.6 26.0
2014-Oct-18 10:00N 19°11' W 117°58'1 0.2 26.0
2014-Oct-18 06:00N 19°11' W 117°58'1 0.6 26.1
2014-Oct-18 05:00N 19°11' W 117°59'1 0.2 26.1
2014-Oct-18 00:00N 19°12' W 117°59'0 0.1 26.2
2014-Oct-17 22:00N 19°12' W 117°58'1 0.4 26.2
2014-Oct-17 20:00N 19°12' W 117°59'1 0.4 26.2
2014-Oct-17 18:00N 19°12' W 117°58'1 1.2 26.1
2014-Oct-17 17:00N 19°13' W 117°59'0 0.4 26.1
2014-Oct-17 16:00N 19°13' W 117°59'0 0.0 26.0
2014-Oct-17 15:00N 19°13' W 117°59'0 0.2 26.0
2014-Oct-17 14:00N 19°13' W 117°59'0 0.2 26.0
2014-Oct-17 12:00N 19°13' W 117°58'0 0.2 26.0
2014-Oct-17 11:00N 19°13' W 117°58'0 0.1 26.0
2014-Oct-17 05:00N 19°13' W 117°59'0 0.5 26.1
2014-Oct-17 04:00N 19°14' W 117°59'1 0.8 26.1
2014-Oct-17 03:00N 19°14' W 117°60'0 0.0 26.1
2014-Oct-17 02:00N 19°14' W 117°60'1 0.4 26.2
2014-Oct-17 00:00N 19°14' W 118°00'0 0.1 26.2
2014-Oct-16 17:00N 19°15' W 118°01'0 0.1 26.1
2014-Oct-16 11:00N 19°15' W 118°01'1 0.1 26.1
2014-Oct-16 05:00N 19°15' W 118°01'1 0.3 26.1
2014-Oct-16 00:00N 19°16' W 118°02'1 0.5 26.2
2014-Oct-15 21:00N 19°14' W 118°03'0 0.0 26.2
2014-Oct-15 19:00N 19°14' W 118°03'0 0.2 26.2
2014-Oct-15 17:00N 19°14' W 118°03'0 0.0 26.1
2014-Oct-15 16:00N 19°14' W 118°03'1 0.4 26.1
2014-Oct-15 13:00N 19°14' W 118°04'2 0.2 26.1
2014-Oct-15 06:00N 19°12' W 118°05'0 0.1 26.1
2014-Oct-15 04:00N 19°12' W 118°05'0 0.1 26.1
2014-Oct-15 03:00N 19°12' W 118°05'1 0.9 26.1
2014-Oct-15 02:00N 19°12' W 118°06'1 1.0 26.1
2014-Oct-15 01:00N 19°12' W 118°07'0 0.1 26.1
2014-Oct-14 23:00N 19°12' W 118°06'6 0.7 26.2
2014-Oct-14 14:00N 19°07' W 118°10'0 0.2 26.1
2014-Oct-14 13:00N 19°07' W 118°10'1 0.6 26.1
2014-Oct-14 12:00N 19°07' W 118°11'1 1.3 26.1
2014-Oct-14 11:00N 19°05' W 118°11'0 0.1 26.1
2014-Oct-14 10:00N 19°05' W 118°11'4 1.0 26.1
2014-Oct-14 06:00N 19°01' W 118°12'1 1.1 26.1
2014-Oct-14 05:00N 19°01' W 118°11'1 1.0 26.1
2014-Oct-14 04:00N 18°60' W 118°11'0 0.4 26.1
2014-Oct-14 03:00N 18°60' W 118°11'1 0.7 26.1
2014-Oct-14 01:00N 18°59' W 118°10'0 0.3 26.1
2014-Oct-14 00:00N 18°59' W 118°10'1 0.7 26.1
2014-Oct-13 23:00N 18°58' W 118°09'1 0.2 26.2
2014-Oct-13 18:00N 18°57' W 118°10'1 0.6 26.1
2014-Oct-13 17:00N 18°57' W 118°10'3 2.7 26.1
2014-Oct-13 16:00N 18°55' W 118°09'1 0.3 26.1
2014-Oct-13 14:00N 18°55' W 118°10'1 0.6 26.1
2014-Oct-13 12:00N 18°53' W 118°09'0 0.1 26.1
2014-Oct-13 10:00N 18°54' W 118°09'3 1.5 26.1
2014-Oct-13 08:00N 18°51' W 118°09'0 0.0 26.2
2014-Oct-13 07:00N 18°51' W 118°09'0 0.0 26.2
2014-Oct-13 06:00N 18°51' W 118°09'4 1.2 26.2
2014-Oct-13 03:00N 18°47' W 118°07'0 0.0 26.2
2014-Oct-13 02:00N 18°47' W 118°07'0 0.0 26.1
2014-Oct-13 01:00N 18°47' W 118°07'2 2.2 26.2
2014-Oct-13 00:00N 18°46' W 118°06'0 0.0 26.1
2014-Oct-12 22:00N 18°46' W 118°06'1 0.5 26.1
2014-Oct-12 20:00N 18°45' W 118°05'2 1.7 26.0
2014-Oct-12 19:00N 18°45' W 118°03'1 0.7 25.9
2014-Oct-12 18:00N 18°44' W 118°03'5 0.8 25.9
2014-Oct-12 12:00N 18°43' W 117°57'5 0.7 25.9
2014-Oct-12 05:00N 18°44' W 117°53'2 1.9 26.2
2014-Oct-12 04:00N 18°46' W 117°52'0 0.0 26.3
2014-Oct-12 03:00N 18°46' W 117°52'0 0.1 26.3
2014-Oct-12 00:00N 18°46' W 117°52'0 0.4 26.4
2014-Oct-11 23:00N 18°46' W 117°52'0 0.3 26.4
2014-Oct-11 22:00N 18°46' W 117°51'0 0.4 26.4
2014-Oct-11 21:00N 18°46' W 117°51'0 0.1 26.4
2014-Oct-11 20:00N 18°46' W 117°51'1 0.2 26.4
2014-Oct-11 17:00N 18°46' W 117°51'2 2.1 26.3
2014-Oct-11 16:00N 18°44' W 117°49'1 0.2 26.2
2014-Oct-11 13:00N 18°44' W 117°48'1 1.4 26.1
2014-Oct-11 12:00N 18°44' W 117°47'0 0.0 26.2
2014-Oct-11 11:00N 18°44' W 117°47'2 1.0 26.1
2014-Oct-11 09:00N 18°44' W 117°45'3 0.9 25.8
2014-Oct-11 06:00N 18°44' W 117°42'   25.8

Dump ship's entire track history